sensor_id;sensor_type;location;lat;lon;timestamp;P1;durP1;ratioP1;P2;durP2;ratioP2
33840;SDS011;20142;28.494;-16.312;2023-04-25T00:04:15;18.70;;;2.83;;
33840;SDS011;20142;28.494;-16.312;2023-04-25T00:09:16;14.90;;;2.10;;
33840;SDS011;20142;28.494;-16.312;2023-04-25T00:14:18;15.38;;;2.40;;
33840;SDS011;20142;28.494;-16.312;2023-04-25T00:19:19;11.50;;;2.10;;
33840;SDS011;20142;28.494;-16.312;2023-04-25T00:24:21;13.23;;;1.98;;
33840;SDS011;20142;28.494;-16.312;2023-04-25T00:29:23;16.55;;;2.00;;
33840;SDS011;20142;28.494;-16.312;2023-04-25T00:34:24;15.05;;;1.85;;
33840;SDS011;20142;28.494;-16.312;2023-04-25T00:39:26;18.67;;;2.47;;
33840;SDS011;20142;28.494;-16.312;2023-04-25T00:44:29;18.25;;;2.65;;
33840;SDS011;20142;28.494;-16.312;2023-04-25T00:49:32;18.20;;;2.45;;
33840;SDS011;20142;28.494;-16.312;2023-04-25T00:54:34;15.75;;;2.17;;
33840;SDS011;20142;28.494;-16.312;2023-04-25T00:59:36;17.70;;;2.22;;
33840;SDS011;20142;28.494;-16.312;2023-04-25T01:04:39;11.13;;;2.08;;
33840;SDS011;20142;28.494;-16.312;2023-04-25T01:09:41;12.07;;;2.03;;
33840;SDS011;20142;28.494;-16.312;2023-04-25T01:14:42;16.30;;;2.08;;
33840;SDS011;20142;28.494;-16.312;2023-04-25T01:19:45;12.40;;;2.03;;
33840;SDS011;20142;28.494;-16.312;2023-04-25T01:24:48;10.85;;;1.90;;
33840;SDS011;20142;28.494;-16.312;2023-04-25T01:29:50;18.40;;;1.83;;
33840;SDS011;20142;28.494;-16.312;2023-04-25T01:34:52;11.55;;;1.83;;
33840;SDS011;20142;28.494;-16.312;2023-04-25T01:39:54;19.23;;;2.15;;
33840;SDS011;20142;28.494;-16.312;2023-04-25T01:44:56;19.52;;;1.80;;
33840;SDS011;20142;28.494;-16.312;2023-04-25T01:49:57;16.67;;;2.45;;
33840;SDS011;20142;28.494;-16.312;2023-04-25T01:54:59;16.10;;;2.08;;
33840;SDS011;20142;28.494;-16.312;2023-04-25T02:00:04;13.30;;;1.73;;
33840;SDS011;20142;28.494;-16.312;2023-04-25T02:05:09;17.55;;;2.92;;
33840;SDS011;20142;28.494;-16.312;2023-04-25T02:10:11;21.05;;;2.60;;
33840;SDS011;20142;28.494;-16.312;2023-04-25T02:15:13;13.43;;;1.63;;
33840;SDS011;20142;28.494;-16.312;2023-04-25T02:20:14;18.98;;;2.83;;
33840;SDS011;20142;28.494;-16.312;2023-04-25T02:25:17;26.98;;;2.53;;
33840;SDS011;20142;28.494;-16.312;2023-04-25T02:30:20;17.63;;;2.88;;
33840;SDS011;20142;28.494;-16.312;2023-04-25T02:35:22;21.60;;;2.17;;
33840;SDS011;20142;28.494;-16.312;2023-04-25T02:40:23;14.20;;;2.17;;
33840;SDS011;20142;28.494;-16.312;2023-04-25T02:45:25;18.08;;;2.03;;
33840;SDS011;20142;28.494;-16.312;2023-04-25T02:50:27;13.55;;;1.58;;
33840;SDS011;20142;28.494;-16.312;2023-04-25T02:55:29;11.45;;;2.25;;
33840;SDS011;20142;28.494;-16.312;2023-04-25T03:00:30;18.48;;;2.35;;
33840;SDS011;20142;28.494;-16.312;2023-04-25T03:05:32;15.63;;;2.63;;
33840;SDS011;20142;28.494;-16.312;2023-04-25T03:10:34;14.93;;;1.98;;
33840;SDS011;20142;28.494;-16.312;2023-04-25T03:15:35;17.15;;;2.33;;
33840;SDS011;20142;28.494;-16.312;2023-04-25T03:20:38;12.82;;;2.85;;
33840;SDS011;20142;28.494;-16.312;2023-04-25T03:25:41;15.82;;;2.70;;
33840;SDS011;20142;28.494;-16.312;2023-04-25T03:30:43;11.45;;;2.05;;
33840;SDS011;20142;28.494;-16.312;2023-04-25T03:35:44;13.98;;;2.03;;
33840;SDS011;20142;28.494;-16.312;2023-04-25T03:40:46;15.27;;;2.78;;
33840;SDS011;20142;28.494;-16.312;2023-04-25T03:45:47;20.42;;;2.45;;
33840;SDS011;20142;28.494;-16.312;2023-04-25T03:50:49;17.45;;;2.47;;
33840;SDS011;20142;28.494;-16.312;2023-04-25T03:55:51;20.40;;;2.67;;
33840;SDS011;20142;28.494;-16.312;2023-04-25T04:00:53;19.73;;;2.60;;
33840;SDS011;20142;28.494;-16.312;2023-04-25T04:05:54;16.38;;;2.50;;
33840;SDS011;20142;28.494;-16.312;2023-04-25T04:10:57;15.60;;;2.13;;
33840;SDS011;20142;28.494;-16.312;2023-04-25T04:15:59;19.05;;;2.20;;
33840;SDS011;20142;28.494;-16.312;2023-04-25T04:21:01;19.30;;;2.53;;
33840;SDS011;20142;28.494;-16.312;2023-04-25T04:26:03;23.48;;;3.72;;
33840;SDS011;20142;28.494;-16.312;2023-04-25T04:31:05;20.67;;;3.10;;
33840;SDS011;20142;28.494;-16.312;2023-04-25T04:36:08;14.05;;;2.25;;
33840;SDS011;20142;28.494;-16.312;2023-04-25T04:41:10;18.35;;;2.88;;
33840;SDS011;20142;28.494;-16.312;2023-04-25T04:46:12;17.30;;;2.33;;
33840;SDS011;20142;28.494;-16.312;2023-04-25T04:51:13;18.75;;;2.40;;
33840;SDS011;20142;28.494;-16.312;2023-04-25T04:56:15;21.33;;;3.25;;
33840;SDS011;20142;28.494;-16.312;2023-04-25T05:01:17;26.40;;;2.70;;
33840;SDS011;20142;28.494;-16.312;2023-04-25T05:06:18;18.35;;;2.28;;
33840;SDS011;20142;28.494;-16.312;2023-04-25T05:11:20;25.02;;;2.83;;
33840;SDS011;20142;28.494;-16.312;2023-04-25T05:16:23;17.83;;;2.97;;
33840;SDS011;20142;28.494;-16.312;2023-04-25T05:21:25;17.00;;;2.80;;
33840;SDS011;20142;28.494;-16.312;2023-04-25T05:26:27;12.68;;;2.40;;
33840;SDS011;20142;28.494;-16.312;2023-04-25T05:31:31;23.02;;;2.47;;
33840;SDS011;20142;28.494;-16.312;2023-04-25T05:36:34;14.88;;;2.17;;
33840;SDS011;20142;28.494;-16.312;2023-04-25T05:41:35;19.50;;;2.97;;
33840;SDS011;20142;28.494;-16.312;2023-04-25T05:46:37;21.42;;;2.67;;
33840;SDS011;20142;28.494;-16.312;2023-04-25T05:51:39;19.45;;;3.05;;
33840;SDS011;20142;28.494;-16.312;2023-04-25T05:56:41;23.50;;;2.90;;
33840;SDS011;20142;28.494;-16.312;2023-04-25T06:01:42;20.73;;;2.67;;
33840;SDS011;20142;28.494;-16.312;2023-04-25T06:06:44;21.63;;;2.63;;
33840;SDS011;20142;28.494;-16.312;2023-04-25T06:11:46;22.35;;;3.15;;
33840;SDS011;20142;28.494;-16.312;2023-04-25T06:16:47;18.50;;;3.50;;
33840;SDS011;20142;28.494;-16.312;2023-04-25T06:21:49;24.80;;;3.75;;
33840;SDS011;20142;28.494;-16.312;2023-04-25T06:26:50;15.70;;;3.10;;
33840;SDS011;20142;28.494;-16.312;2023-04-25T06:31:53;18.65;;;2.95;;
33840;SDS011;20142;28.494;-16.312;2023-04-25T06:36:55;21.80;;;3.15;;
33840;SDS011;20142;28.494;-16.312;2023-04-25T06:41:56;26.13;;;3.50;;
33840;SDS011;20142;28.494;-16.312;2023-04-25T06:46:58;26.33;;;2.90;;
33840;SDS011;20142;28.494;-16.312;2023-04-25T06:51:59;21.92;;;3.53;;
33840;SDS011;20142;28.494;-16.312;2023-04-25T06:57:01;21.55;;;3.00;;
33840;SDS011;20142;28.494;-16.312;2023-04-25T07:02:03;26.30;;;3.70;;
33840;SDS011;20142;28.494;-16.312;2023-04-25T07:07:05;22.65;;;3.30;;
33840;SDS011;20142;28.494;-16.312;2023-04-25T07:12:06;11.35;;;2.25;;
33840;SDS011;20142;28.494;-16.312;2023-04-25T07:17:08;16.48;;;2.38;;
33840;SDS011;20142;28.494;-16.312;2023-04-25T07:22:10;20.33;;;3.15;;
33840;SDS011;20142;28.494;-16.312;2023-04-25T07:27:12;25.00;;;3.50;;
33840;SDS011;20142;28.494;-16.312;2023-04-25T07:32:13;18.10;;;3.22;;
33840;SDS011;20142;28.494;-16.312;2023-04-25T07:37:15;20.00;;;3.45;;
33840;SDS011;20142;28.494;-16.312;2023-04-25T07:42:19;22.23;;;2.88;;
33840;SDS011;20142;28.494;-16.312;2023-04-25T07:47:21;20.33;;;2.80;;
33840;SDS011;20142;28.494;-16.312;2023-04-25T07:52:23;13.02;;;2.10;;
33840;SDS011;20142;28.494;-16.312;2023-04-25T07:57:25;23.65;;;2.88;;
33840;SDS011;20142;28.494;-16.312;2023-04-25T08:02:26;20.55;;;2.85;;
33840;SDS011;20142;28.494;-16.312;2023-04-25T08:07:28;16.42;;;2.70;;
33840;SDS011;20142;28.494;-16.312;2023-04-25T08:12:30;24.17;;;2.97;;
33840;SDS011;20142;28.494;-16.312;2023-04-25T08:17:32;14.43;;;2.20;;
33840;SDS011;20142;28.494;-16.312;2023-04-25T08:22:33;17.35;;;2.40;;
33840;SDS011;20142;28.494;-16.312;2023-04-25T08:27:35;16.95;;;2.80;;
33840;SDS011;20142;28.494;-16.312;2023-04-25T08:32:37;15.50;;;2.50;;
33840;SDS011;20142;28.494;-16.312;2023-04-25T08:37:39;15.23;;;3.35;;
33840;SDS011;20142;28.494;-16.312;2023-04-25T08:42:41;16.63;;;2.75;;
33840;SDS011;20142;28.494;-16.312;2023-04-25T08:47:43;12.85;;;2.17;;
33840;SDS011;20142;28.494;-16.312;2023-04-25T08:52:46;16.48;;;2.35;;
33840;SDS011;20142;28.494;-16.312;2023-04-25T08:57:53;21.20;;;2.58;;
33840;SDS011;20142;28.494;-16.312;2023-04-25T09:02:57;14.48;;;2.42;;
33840;SDS011;20142;28.494;-16.312;2023-04-25T09:08:00;17.88;;;2.47;;
33840;SDS011;20142;28.494;-16.312;2023-04-25T09:13:17;13.63;;;2.28;;
33840;SDS011;20142;28.494;-16.312;2023-04-25T09:18:30;15.80;;;2.40;;
33840;SDS011;20142;28.494;-16.312;2023-04-25T09:23:45;12.90;;;2.47;;
33840;SDS011;20142;28.494;-16.312;2023-04-25T09:29:04;20.85;;;2.47;;
33840;SDS011;20142;28.494;-16.312;2023-04-25T09:34:09;16.55;;;2.80;;
33840;SDS011;20142;28.494;-16.312;2023-04-25T09:39:16;23.10;;;3.17;;
33840;SDS011;20142;28.494;-16.312;2023-04-25T09:44:23;21.77;;;2.70;;
33840;SDS011;20142;28.494;-16.312;2023-04-25T09:49:25;16.90;;;2.58;;
33840;SDS011;20142;28.494;-16.312;2023-04-25T09:54:28;17.88;;;2.60;;
33840;SDS011;20142;28.494;-16.312;2023-04-25T09:59:30;16.83;;;2.38;;
33840;SDS011;20142;28.494;-16.312;2023-04-25T10:04:34;20.67;;;2.70;;
33840;SDS011;20142;28.494;-16.312;2023-04-25T10:09:37;19.55;;;3.45;;
33840;SDS011;20142;28.494;-16.312;2023-04-25T10:14:40;14.25;;;2.35;;
33840;SDS011;20142;28.494;-16.312;2023-04-25T10:19:43;13.95;;;2.33;;
33840;SDS011;20142;28.494;-16.312;2023-04-25T10:24:45;12.45;;;1.95;;
33840;SDS011;20142;28.494;-16.312;2023-04-25T10:35:18;17.35;;;2.25;;
33840;SDS011;20142;28.494;-16.312;2023-04-25T10:40:26;14.70;;;2.35;;
33840;SDS011;20142;28.494;-16.312;2023-04-25T10:45:28;8.77;;;1.88;;
33840;SDS011;20142;28.494;-16.312;2023-04-25T10:50:36;20.98;;;2.47;;
33840;SDS011;20142;28.494;-16.312;2023-04-25T10:55:51;12.65;;;2.00;;
33840;SDS011;20142;28.494;-16.312;2023-04-25T11:00:54;14.65;;;2.40;;
33840;SDS011;20142;28.494;-16.312;2023-04-25T11:05:56;17.27;;;2.70;;
33840;SDS011;20142;28.494;-16.312;2023-04-25T11:11:00;12.38;;;2.05;;
33840;SDS011;20142;28.494;-16.312;2023-04-25T11:16:02;12.05;;;2.08;;
33840;SDS011;20142;28.494;-16.312;2023-04-25T11:21:08;13.70;;;2.60;;
33840;SDS011;20142;28.494;-16.312;2023-04-25T11:26:11;17.38;;;2.10;;
33840;SDS011;20142;28.494;-16.312;2023-04-25T11:31:14;18.10;;;2.38;;
33840;SDS011;20142;28.494;-16.312;2023-04-25T11:36:16;12.93;;;2.13;;
33840;SDS011;20142;28.494;-16.312;2023-04-25T11:41:18;14.82;;;2.55;;
33840;SDS011;20142;28.494;-16.312;2023-04-25T11:46:23;17.70;;;2.42;;
33840;SDS011;20142;28.494;-16.312;2023-04-25T11:51:25;20.60;;;2.78;;
33840;SDS011;20142;28.494;-16.312;2023-04-25T11:56:26;13.73;;;2.55;;
33840;SDS011;20142;28.494;-16.312;2023-04-25T12:01:29;13.65;;;1.90;;
33840;SDS011;20142;28.494;-16.312;2023-04-25T12:06:32;11.88;;;2.20;;
33840;SDS011;20142;28.494;-16.312;2023-04-25T12:11:45;9.50;;;2.20;;
33840;SDS011;20142;28.494;-16.312;2023-04-25T12:16:48;11.93;;;2.58;;
33840;SDS011;20142;28.494;-16.312;2023-04-25T12:21:52;14.93;;;2.40;;
33840;SDS011;20142;28.494;-16.312;2023-04-25T12:27:04;14.45;;;2.42;;
33840;SDS011;20142;28.494;-16.312;2023-04-25T12:32:08;12.52;;;2.72;;
33840;SDS011;20142;28.494;-16.312;2023-04-25T12:37:10;14.55;;;2.58;;
33840;SDS011;20142;28.494;-16.312;2023-04-25T12:42:12;14.98;;;2.45;;
33840;SDS011;20142;28.494;-16.312;2023-04-25T12:47:14;15.00;;;2.35;;
33840;SDS011;20142;28.494;-16.312;2023-04-25T12:52:15;14.35;;;2.17;;
33840;SDS011;20142;28.494;-16.312;2023-04-25T12:57:17;18.63;;;2.47;;
33840;SDS011;20142;28.494;-16.312;2023-04-25T13:02:19;11.90;;;2.47;;
33840;SDS011;20142;28.494;-16.312;2023-04-25T13:07:21;14.73;;;2.78;;
33840;SDS011;20142;28.494;-16.312;2023-04-25T13:12:23;11.23;;;2.25;;
33840;SDS011;20142;28.494;-16.312;2023-04-25T13:17:25;16.50;;;2.42;;
33840;SDS011;20142;28.494;-16.312;2023-04-25T13:22:26;14.32;;;2.65;;
33840;SDS011;20142;28.494;-16.312;2023-04-25T13:27:28;13.68;;;2.47;;
33840;SDS011;20142;28.494;-16.312;2023-04-25T13:32:33;19.98;;;2.83;;
33840;SDS011;20142;28.494;-16.312;2023-04-25T13:37:38;11.23;;;2.47;;
33840;SDS011;20142;28.494;-16.312;2023-04-25T13:42:41;15.10;;;2.33;;
33840;SDS011;20142;28.494;-16.312;2023-04-25T13:47:44;12.55;;;2.40;;
33840;SDS011;20142;28.494;-16.312;2023-04-25T13:52:46;20.35;;;3.00;;
33840;SDS011;20142;28.494;-16.312;2023-04-25T13:57:48;15.25;;;2.45;;
33840;SDS011;20142;28.494;-16.312;2023-04-25T14:02:50;14.80;;;2.58;;
33840;SDS011;20142;28.494;-16.312;2023-04-25T14:07:51;13.25;;;2.20;;
33840;SDS011;20142;28.494;-16.312;2023-04-25T14:12:53;19.00;;;2.97;;
33840;SDS011;20142;28.494;-16.312;2023-04-25T14:17:55;14.10;;;2.92;;
33840;SDS011;20142;28.494;-16.312;2023-04-25T14:22:57;19.80;;;3.10;;
33840;SDS011;20142;28.494;-16.312;2023-04-25T14:27:59;15.35;;;2.88;;
33840;SDS011;20142;28.494;-16.312;2023-04-25T14:33:01;11.52;;;2.05;;
33840;SDS011;20142;28.494;-16.312;2023-04-25T14:38:03;14.25;;;2.40;;
33840;SDS011;20142;28.494;-16.312;2023-04-25T14:43:06;9.93;;;2.40;;
33840;SDS011;20142;28.494;-16.312;2023-04-25T14:48:07;10.55;;;2.45;;
33840;SDS011;20142;28.494;-16.312;2023-04-25T14:53:09;11.57;;;2.47;;
33840;SDS011;20142;28.494;-16.312;2023-04-25T14:58:11;10.93;;;2.05;;
33840;SDS011;20142;28.494;-16.312;2023-04-25T15:03:13;13.85;;;2.50;;
33840;SDS011;20142;28.494;-16.312;2023-04-25T15:08:16;11.63;;;2.50;;
33840;SDS011;20142;28.494;-16.312;2023-04-25T15:13:18;11.15;;;2.70;;
33840;SDS011;20142;28.494;-16.312;2023-04-25T15:18:20;12.00;;;2.63;;
33840;SDS011;20142;28.494;-16.312;2023-04-25T15:23:25;10.77;;;2.42;;
33840;SDS011;20142;28.494;-16.312;2023-04-25T15:28:27;9.18;;;2.13;;
33840;SDS011;20142;28.494;-16.312;2023-04-25T15:33:29;11.57;;;2.10;;
33840;SDS011;20142;28.494;-16.312;2023-04-25T15:38:31;14.60;;;2.83;;
33840;SDS011;20142;28.494;-16.312;2023-04-25T15:43:33;16.50;;;3.08;;
33840;SDS011;20142;28.494;-16.312;2023-04-25T15:48:38;11.75;;;2.35;;
33840;SDS011;20142;28.494;-16.312;2023-04-25T15:53:40;10.23;;;2.95;;
33840;SDS011;20142;28.494;-16.312;2023-04-25T15:58:41;12.85;;;2.30;;
33840;SDS011;20142;28.494;-16.312;2023-04-25T16:03:43;12.07;;;2.70;;
33840;SDS011;20142;28.494;-16.312;2023-04-25T16:08:45;15.75;;;2.80;;
33840;SDS011;20142;28.494;-16.312;2023-04-25T16:13:46;12.38;;;2.95;;
33840;SDS011;20142;28.494;-16.312;2023-04-25T16:18:48;14.93;;;2.78;;
33840;SDS011;20142;28.494;-16.312;2023-04-25T16:23:50;10.65;;;2.75;;
33840;SDS011;20142;28.494;-16.312;2023-04-25T16:28:52;17.77;;;3.00;;
33840;SDS011;20142;28.494;-16.312;2023-04-25T16:33:54;12.30;;;2.65;;
33840;SDS011;20142;28.494;-16.312;2023-04-25T16:38:56;11.77;;;2.47;;
33840;SDS011;20142;28.494;-16.312;2023-04-25T16:43:58;11.85;;;2.63;;
33840;SDS011;20142;28.494;-16.312;2023-04-25T16:49:00;10.27;;;2.53;;
33840;SDS011;20142;28.494;-16.312;2023-04-25T16:54:01;12.40;;;2.25;;
33840;SDS011;20142;28.494;-16.312;2023-04-25T16:59:03;13.13;;;2.40;;
33840;SDS011;20142;28.494;-16.312;2023-04-25T17:04:06;12.32;;;2.97;;
33840;SDS011;20142;28.494;-16.312;2023-04-25T17:09:07;14.18;;;2.90;;
33840;SDS011;20142;28.494;-16.312;2023-04-25T17:14:10;9.45;;;2.42;;
33840;SDS011;20142;28.494;-16.312;2023-04-25T17:19:11;13.50;;;2.70;;
33840;SDS011;20142;28.494;-16.312;2023-04-25T17:24:13;13.18;;;2.70;;
33840;SDS011;20142;28.494;-16.312;2023-04-25T17:29:15;10.77;;;2.35;;
33840;SDS011;20142;28.494;-16.312;2023-04-25T17:34:17;11.43;;;2.42;;
33840;SDS011;20142;28.494;-16.312;2023-04-25T17:39:18;10.98;;;2.65;;
33840;SDS011;20142;28.494;-16.312;2023-04-25T17:44:21;9.45;;;2.22;;
33840;SDS011;20142;28.494;-16.312;2023-04-25T17:49:22;10.32;;;2.25;;
33840;SDS011;20142;28.494;-16.312;2023-04-25T17:54:24;12.25;;;2.50;;
33840;SDS011;20142;28.494;-16.312;2023-04-25T17:59:27;16.48;;;2.47;;
33840;SDS011;20142;28.494;-16.312;2023-04-25T18:04:29;11.75;;;2.17;;
33840;SDS011;20142;28.494;-16.312;2023-04-25T18:09:31;9.27;;;2.58;;
33840;SDS011;20142;28.494;-16.312;2023-04-25T18:14:33;13.65;;;2.72;;
33840;SDS011;20142;28.494;-16.312;2023-04-25T18:19:36;16.80;;;2.40;;
33840;SDS011;20142;28.494;-16.312;2023-04-25T18:24:37;15.45;;;2.63;;
33840;SDS011;20142;28.494;-16.312;2023-04-25T18:29:39;19.67;;;3.00;;
33840;SDS011;20142;28.494;-16.312;2023-04-25T18:34:43;12.88;;;3.10;;
33840;SDS011;20142;28.494;-16.312;2023-04-25T18:39:46;18.80;;;2.83;;
33840;SDS011;20142;28.494;-16.312;2023-04-25T18:44:48;16.08;;;2.35;;
33840;SDS011;20142;28.494;-16.312;2023-04-25T18:49:50;21.35;;;3.45;;
33840;SDS011;20142;28.494;-16.312;2023-04-25T18:54:53;15.18;;;2.78;;
33840;SDS011;20142;28.494;-16.312;2023-04-25T18:59:55;19.63;;;2.97;;
33840;SDS011;20142;28.494;-16.312;2023-04-25T19:04:57;23.00;;;3.33;;
33840;SDS011;20142;28.494;-16.312;2023-04-25T19:09:59;20.17;;;3.08;;
33840;SDS011;20142;28.494;-16.312;2023-04-25T19:15:06;20.85;;;3.30;;
33840;SDS011;20142;28.494;-16.312;2023-04-25T19:20:09;19.13;;;3.53;;
33840;SDS011;20142;28.494;-16.312;2023-04-25T19:25:11;16.05;;;2.92;;
33840;SDS011;20142;28.494;-16.312;2023-04-25T19:30:13;15.57;;;2.72;;
33840;SDS011;20142;28.494;-16.312;2023-04-25T19:35:15;15.13;;;3.10;;
33840;SDS011;20142;28.494;-16.312;2023-04-25T19:40:17;18.77;;;3.40;;
33840;SDS011;20142;28.494;-16.312;2023-04-25T19:45:21;17.45;;;3.28;;
33840;SDS011;20142;28.494;-16.312;2023-04-25T19:50:23;23.80;;;3.13;;
33840;SDS011;20142;28.494;-16.312;2023-04-25T19:55:25;20.40;;;3.30;;
33840;SDS011;20142;28.494;-16.312;2023-04-25T20:00:27;23.45;;;3.88;;
33840;SDS011;20142;28.494;-16.312;2023-04-25T20:05:29;20.15;;;3.92;;
33840;SDS011;20142;28.494;-16.312;2023-04-25T20:10:31;17.30;;;3.40;;
33840;SDS011;20142;28.494;-16.312;2023-04-25T20:15:33;21.05;;;3.45;;
33840;SDS011;20142;28.494;-16.312;2023-04-25T20:20:35;23.05;;;3.20;;
33840;SDS011;20142;28.494;-16.312;2023-04-25T20:25:37;18.63;;;3.65;;
33840;SDS011;20142;28.494;-16.312;2023-04-25T20:30:38;18.80;;;3.38;;
33840;SDS011;20142;28.494;-16.312;2023-04-25T20:35:40;21.13;;;3.85;;
33840;SDS011;20142;28.494;-16.312;2023-04-25T20:40:42;19.63;;;3.78;;
33840;SDS011;20142;28.494;-16.312;2023-04-25T20:45:44;18.58;;;3.45;;
33840;SDS011;20142;28.494;-16.312;2023-04-25T20:50:45;18.25;;;3.90;;
33840;SDS011;20142;28.494;-16.312;2023-04-25T20:55:47;20.90;;;3.30;;
33840;SDS011;20142;28.494;-16.312;2023-04-25T21:00:49;18.35;;;3.95;;
33840;SDS011;20142;28.494;-16.312;2023-04-25T21:05:50;22.95;;;3.78;;
33840;SDS011;20142;28.494;-16.312;2023-04-25T21:10:52;20.98;;;3.72;;
33840;SDS011;20142;28.494;-16.312;2023-04-25T21:15:54;23.90;;;3.58;;
33840;SDS011;20142;28.494;-16.312;2023-04-25T21:20:56;22.95;;;3.78;;
33840;SDS011;20142;28.494;-16.312;2023-04-25T21:25:58;25.15;;;5.60;;
33840;SDS011;20142;28.494;-16.312;2023-04-25T21:31:00;21.17;;;4.55;;
33840;SDS011;20142;28.494;-16.312;2023-04-25T21:36:02;21.05;;;3.40;;
33840;SDS011;20142;28.494;-16.312;2023-04-25T21:41:04;23.38;;;4.03;;
33840;SDS011;20142;28.494;-16.312;2023-04-25T21:46:06;18.25;;;3.63;;
33840;SDS011;20142;28.494;-16.312;2023-04-25T21:51:07;21.75;;;3.47;;
33840;SDS011;20142;28.494;-16.312;2023-04-25T21:56:09;22.63;;;3.95;;
33840;SDS011;20142;28.494;-16.312;2023-04-25T22:01:12;14.60;;;2.90;;
33840;SDS011;20142;28.494;-16.312;2023-04-25T22:06:15;18.02;;;3.42;;
33840;SDS011;20142;28.494;-16.312;2023-04-25T22:11:16;25.05;;;3.78;;
33840;SDS011;20142;28.494;-16.312;2023-04-25T22:16:18;23.25;;;3.28;;
33840;SDS011;20142;28.494;-16.312;2023-04-25T22:21:20;19.88;;;3.10;;
33840;SDS011;20142;28.494;-16.312;2023-04-25T22:26:23;23.42;;;3.33;;
33840;SDS011;20142;28.494;-16.312;2023-04-25T22:31:26;21.83;;;3.70;;
33840;SDS011;20142;28.494;-16.312;2023-04-25T22:36:28;16.00;;;3.53;;
33840;SDS011;20142;28.494;-16.312;2023-04-25T22:41:30;21.75;;;3.65;;
33840;SDS011;20142;28.494;-16.312;2023-04-25T22:46:32;23.42;;;3.67;;
33840;SDS011;20142;28.494;-16.312;2023-04-25T22:51:33;26.17;;;3.75;;
33840;SDS011;20142;28.494;-16.312;2023-04-25T22:56:36;20.25;;;3.13;;
33840;SDS011;20142;28.494;-16.312;2023-04-25T23:01:38;17.73;;;3.47;;
33840;SDS011;20142;28.494;-16.312;2023-04-25T23:06:39;24.70;;;3.97;;
33840;SDS011;20142;28.494;-16.312;2023-04-25T23:11:41;16.23;;;3.13;;
33840;SDS011;20142;28.494;-16.312;2023-04-25T23:16:43;16.13;;;3.50;;
33840;SDS011;20142;28.494;-16.312;2023-04-25T23:21:45;17.13;;;3.25;;
33840;SDS011;20142;28.494;-16.312;2023-04-25T23:26:46;16.75;;;3.28;;
33840;SDS011;20142;28.494;-16.312;2023-04-25T23:31:48;21.73;;;3.38;;
33840;SDS011;20142;28.494;-16.312;2023-04-25T23:36:50;17.08;;;3.08;;
33840;SDS011;20142;28.494;-16.312;2023-04-25T23:41:51;19.88;;;3.50;;
33840;SDS011;20142;28.494;-16.312;2023-04-25T23:46:53;22.63;;;3.67;;
33840;SDS011;20142;28.494;-16.312;2023-04-25T23:51:55;16.98;;;3.22;;
33840;SDS011;20142;28.494;-16.312;2023-04-25T23:56:56;21.50;;;3.22;;
